sensor_id;sensor_type;location;lat;lon;timestamp;temperature;humidity
67131;HTU21D;54051;53.464;49.532;2023-09-19T00:02:01;13.37;77.95
67131;HTU21D;54051;53.464;49.532;2023-09-19T00:04:33;13.33;78.32
67131;HTU21D;54051;53.464;49.532;2023-09-19T00:06:59;13.32;78.06
67131;HTU21D;54051;53.464;49.532;2023-09-19T00:09:25;13.31;77.95
67131;HTU21D;54051;53.464;49.532;2023-09-19T00:11:53;13.32;77.94
67131;HTU21D;54051;53.464;49.532;2023-09-19T00:14:19;13.33;78.29
67131;HTU21D;54051;53.464;49.532;2023-09-19T00:16:45;13.31;78.34
67131;HTU21D;54051;53.464;49.532;2023-09-19T00:19:11;13.27;78.34
67131;HTU21D;54051;53.464;49.532;2023-09-19T00:21:39;13.24;78.66
67131;HTU21D;54051;53.464;49.532;2023-09-19T00:24:06;13.23;78.71
67131;HTU21D;54051;53.464;49.532;2023-09-19T00:26:32;13.23;78.92
67131;HTU21D;54051;53.464;49.532;2023-09-19T00:29:00;13.21;78.92
67131;HTU21D;54051;53.464;49.532;2023-09-19T00:31:34;13.18;79.11
67131;HTU21D;54051;53.464;49.532;2023-09-19T00:33:59;13.12;79.39
67131;HTU21D;54051;53.464;49.532;2023-09-19T00:36:30;13.12;79.58
67131;HTU21D;54051;53.464;49.532;2023-09-19T00:38:56;13.10;79.49
67131;HTU21D;54051;53.464;49.532;2023-09-19T00:41:21;13.10;79.39
67131;HTU21D;54051;53.464;49.532;2023-09-19T00:43:48;13.05;79.37
67131;HTU21D;54051;53.464;49.532;2023-09-19T00:46:16;13.02;79.46
67131;HTU21D;54051;53.464;49.532;2023-09-19T00:48:42;13.00;79.51
67131;HTU21D;54051;53.464;49.532;2023-09-19T00:51:09;12.99;79.58
67131;HTU21D;54051;53.464;49.532;2023-09-19T00:53:36;12.97;79.59
67131;HTU21D;54051;53.464;49.532;2023-09-19T00:56:05;12.94;79.74
67131;HTU21D;54051;53.464;49.532;2023-09-19T00:58:33;12.90;79.82
67131;HTU21D;54051;53.464;49.532;2023-09-19T01:00:59;12.92;79.83
67131;HTU21D;54051;53.464;49.532;2023-09-19T01:03:26;12.90;79.87
67131;HTU21D;54051;53.464;49.532;2023-09-19T01:05:52;12.87;80.01
67131;HTU21D;54051;53.464;49.532;2023-09-19T01:08:18;12.84;80.26
67131;HTU21D;54051;53.464;49.532;2023-09-19T01:10:46;12.80;80.35
67131;HTU21D;54051;53.464;49.532;2023-09-19T01:13:21;12.81;80.37
67131;HTU21D;54051;53.464;49.532;2023-09-19T01:15:59;12.74;80.81
67131;HTU21D;54051;53.464;49.532;2023-09-19T01:21:36;12.76;81.39
67131;HTU21D;54051;53.464;49.532;2023-09-19T01:24:10;12.81;81.43
67131;HTU21D;54051;53.464;49.532;2023-09-19T01:32:04;12.99;80.07
67131;HTU21D;54051;53.464;49.532;2023-09-19T01:34:43;12.97;80.07
67131;HTU21D;54051;53.464;49.532;2023-09-19T01:37:11;12.95;80.08
67131;HTU21D;54051;53.464;49.532;2023-09-19T01:39:37;12.96;80.23
67131;HTU21D;54051;53.464;49.532;2023-09-19T01:42:10;12.95;80.29
67131;HTU21D;54051;53.464;49.532;2023-09-19T01:44:44;12.95;80.36
67131;HTU21D;54051;53.464;49.532;2023-09-19T01:47:33;12.93;80.69
67131;HTU21D;54051;53.464;49.532;2023-09-19T01:50:07;12.92;80.67
67131;HTU21D;54051;53.464;49.532;2023-09-19T01:52:38;12.93;80.77
67131;HTU21D;54051;53.464;49.532;2023-09-19T01:55:09;12.85;81.10
67131;HTU21D;54051;53.464;49.532;2023-09-19T01:57:42;12.81;81.62
67131;HTU21D;54051;53.464;49.532;2023-09-19T02:00:12;12.81;81.61
67131;HTU21D;54051;53.464;49.532;2023-09-19T02:02:42;12.82;81.57
67131;HTU21D;54051;53.464;49.532;2023-09-19T02:05:10;12.85;81.88
67131;HTU21D;54051;53.464;49.532;2023-09-19T02:07:37;12.89;81.62
67131;HTU21D;54051;53.464;49.532;2023-09-19T02:10:06;12.91;81.59
67131;HTU21D;54051;53.464;49.532;2023-09-19T02:12:32;12.89;81.55
67131;HTU21D;54051;53.464;49.532;2023-09-19T02:14:58;12.87;81.44
67131;HTU21D;54051;53.464;49.532;2023-09-19T02:17:25;12.85;81.36
67131;HTU21D;54051;53.464;49.532;2023-09-19T02:19:53;12.84;81.37
67131;HTU21D;54051;53.464;49.532;2023-09-19T02:22:20;12.84;81.18
67131;HTU21D;54051;53.464;49.532;2023-09-19T02:24:46;12.87;81.14
67131;HTU21D;54051;53.464;49.532;2023-09-19T02:27:14;12.89;81.00
67131;HTU21D;54051;53.464;49.532;2023-09-19T02:29:41;12.89;80.99
67131;HTU21D;54051;53.464;49.532;2023-09-19T02:32:07;12.89;81.00
67131;HTU21D;54051;53.464;49.532;2023-09-19T02:34:35;12.94;80.85
67131;HTU21D;54051;53.464;49.532;2023-09-19T02:37:07;13.00;80.78
67131;HTU21D;54051;53.464;49.532;2023-09-19T02:39:36;13.07;80.32
67131;HTU21D;54051;53.464;49.532;2023-09-19T02:42:02;13.20;79.86
67131;HTU21D;54051;53.464;49.532;2023-09-19T02:44:29;13.29;79.68
67131;HTU21D;54051;53.464;49.532;2023-09-19T02:46:55;13.37;79.19
67131;HTU21D;54051;53.464;49.532;2023-09-19T02:49:22;13.47;78.79
67131;HTU21D;54051;53.464;49.532;2023-09-19T02:51:48;13.50;78.61
67131;HTU21D;54051;53.464;49.532;2023-09-19T02:54:14;13.58;78.36
67131;HTU21D;54051;53.464;49.532;2023-09-19T02:56:41;13.75;77.69
67131;HTU21D;54051;53.464;49.532;2023-09-19T02:59:07;13.88;77.25
67131;HTU21D;54051;53.464;49.532;2023-09-19T03:01:36;14.03;76.70
67131;HTU21D;54051;53.464;49.532;2023-09-19T03:04:03;14.18;75.98
67131;HTU21D;54051;53.464;49.532;2023-09-19T03:06:31;14.33;75.28
67131;HTU21D;54051;53.464;49.532;2023-09-19T03:08:58;14.39;75.05
67131;HTU21D;54051;53.464;49.532;2023-09-19T03:11:25;14.50;74.58
67131;HTU21D;54051;53.464;49.532;2023-09-19T03:13:54;14.56;74.37
67131;HTU21D;54051;53.464;49.532;2023-09-19T03:16:20;14.60;74.04
67131;HTU21D;54051;53.464;49.532;2023-09-19T03:18:50;14.69;73.55
67131;HTU21D;54051;53.464;49.532;2023-09-19T03:21:16;14.78;73.38
67131;HTU21D;54051;53.464;49.532;2023-09-19T03:23:42;14.86;72.80
67131;HTU21D;54051;53.464;49.532;2023-09-19T03:26:11;15.03;72.40
67131;HTU21D;54051;53.464;49.532;2023-09-19T03:28:38;15.37;71.25
67131;HTU21D;54051;53.464;49.532;2023-09-19T03:31:04;15.72;70.10
67131;HTU21D;54051;53.464;49.532;2023-09-19T03:33:30;16.02;68.79
67131;HTU21D;54051;53.464;49.532;2023-09-19T03:35:59;16.28;68.02
67131;HTU21D;54051;53.464;49.532;2023-09-19T03:38:29;16.46;66.75
67131;HTU21D;54051;53.464;49.532;2023-09-19T03:40:55;16.62;66.24
67131;HTU21D;54051;53.464;49.532;2023-09-19T03:43:21;16.60;66.50
67131;HTU21D;54051;53.464;49.532;2023-09-19T03:45:47;16.62;66.61
67131;HTU21D;54051;53.464;49.532;2023-09-19T03:48:12;16.64;66.89
67131;HTU21D;54051;53.464;49.532;2023-09-19T03:50:38;16.98;66.40
67131;HTU21D;54051;53.464;49.532;2023-09-19T03:53:04;17.41;64.90
67131;HTU21D;54051;53.464;49.532;2023-09-19T03:55:32;17.75;63.65
67131;HTU21D;54051;53.464;49.532;2023-09-19T03:58:01;18.38;61.94
67131;HTU21D;54051;53.464;49.532;2023-09-19T04:00:27;19.94;57.00
67131;HTU21D;54051;53.464;49.532;2023-09-19T04:02:54;20.95;54.22
67131;HTU21D;54051;53.464;49.532;2023-09-19T04:05:22;24.58;43.67
67131;HTU21D;54051;53.464;49.532;2023-09-19T04:07:49;27.13;37.12
67131;HTU21D;54051;53.464;49.532;2023-09-19T04:10:15;28.46;33.70
67131;HTU21D;54051;53.464;49.532;2023-09-19T04:12:54;29.07;32.61
67131;HTU21D;54051;53.464;49.532;2023-09-19T04:15:20;28.88;32.46
67131;HTU21D;54051;53.464;49.532;2023-09-19T04:17:49;27.64;34.93
67131;HTU21D;54051;53.464;49.532;2023-09-19T04:20:16;25.59;39.44
67131;HTU21D;54051;53.464;49.532;2023-09-19T04:22:43;23.74;44.00
67131;HTU21D;54051;53.464;49.532;2023-09-19T04:25:09;23.96;44.33
67131;HTU21D;54051;53.464;49.532;2023-09-19T04:27:35;24.77;41.62
67131;HTU21D;54051;53.464;49.532;2023-09-19T04:30:01;23.60;44.45
67131;HTU21D;54051;53.464;49.532;2023-09-19T04:32:29;22.76;46.64
67131;HTU21D;54051;53.464;49.532;2023-09-19T04:34:55;21.85;48.92
67131;HTU21D;54051;53.464;49.532;2023-09-19T04:37:25;20.75;52.24
67131;HTU21D;54051;53.464;49.532;2023-09-19T04:39:51;20.06;54.62
67131;HTU21D;54051;53.464;49.532;2023-09-19T04:42:17;21.01;51.91
67131;HTU21D;54051;53.464;49.532;2023-09-19T04:44:43;21.67;50.46
67131;HTU21D;54051;53.464;49.532;2023-09-19T04:47:09;22.68;46.96
67131;HTU21D;54051;53.464;49.532;2023-09-19T04:49:37;21.33;50.72
67131;HTU21D;54051;53.464;49.532;2023-09-19T04:52:05;20.00;54.68
67131;HTU21D;54051;53.464;49.532;2023-09-19T04:54:31;19.25;57.10
67131;HTU21D;54051;53.464;49.532;2023-09-19T04:56:57;18.88;58.35
67131;HTU21D;54051;53.464;49.532;2023-09-19T04:59:23;18.78;58.70
67131;HTU21D;54051;53.464;49.532;2023-09-19T05:01:49;18.86;58.39
67131;HTU21D;54051;53.464;49.532;2023-09-19T05:04:15;19.14;57.27
67131;HTU21D;54051;53.464;49.532;2023-09-19T05:06:41;19.27;56.80
67131;HTU21D;54051;53.464;49.532;2023-09-19T05:09:07;19.06;57.48
67131;HTU21D;54051;53.464;49.532;2023-09-19T05:11:34;19.08;57.27
67131;HTU21D;54051;53.464;49.532;2023-09-19T05:14:00;19.16;57.09
67131;HTU21D;54051;53.464;49.532;2023-09-19T05:16:29;19.54;56.26
67131;HTU21D;54051;53.464;49.532;2023-09-19T05:18:57;19.81;54.71
67131;HTU21D;54051;53.464;49.532;2023-09-19T05:21:26;19.63;55.69
67131;HTU21D;54051;53.464;49.532;2023-09-19T05:23:54;19.60;55.52
67131;HTU21D;54051;53.464;49.532;2023-09-19T05:26:20;19.59;55.31
67131;HTU21D;54051;53.464;49.532;2023-09-19T05:28:46;21.09;51.34
67131;HTU21D;54051;53.464;49.532;2023-09-19T05:31:13;23.02;45.34
67131;HTU21D;54051;53.464;49.532;2023-09-19T05:33:41;23.54;43.35
67131;HTU21D;54051;53.464;49.532;2023-09-19T05:36:08;23.56;43.19
67131;HTU21D;54051;53.464;49.532;2023-09-19T05:38:36;27.05;35.37
67131;HTU21D;54051;53.464;49.532;2023-09-19T05:41:02;29.48;29.79
67131;HTU21D;54051;53.464;49.532;2023-09-19T05:43:28;31.09;27.22
67131;HTU21D;54051;53.464;49.532;2023-09-19T05:45:54;33.26;23.83
67131;HTU21D;54051;53.464;49.532;2023-09-19T05:48:22;34.95;21.15
67131;HTU21D;54051;53.464;49.532;2023-09-19T05:50:48;35.13;20.16
67131;HTU21D;54051;53.464;49.532;2023-09-19T05:53:14;35.58;19.46
67131;HTU21D;54051;53.464;49.532;2023-09-19T05:55:40;35.65;19.57
67131;HTU21D;54051;53.464;49.532;2023-09-19T05:58:06;34.47;20.34
67131;HTU21D;54051;53.464;49.532;2023-09-19T06:00:32;31.53;24.89
67131;HTU21D;54051;53.464;49.532;2023-09-19T06:02:59;30.68;26.94
67131;HTU21D;54051;53.464;49.532;2023-09-19T06:05:25;28.58;29.91
67131;HTU21D;54051;53.464;49.532;2023-09-19T06:07:55;26.49;34.66
67131;HTU21D;54051;53.464;49.532;2023-09-19T06:10:26;26.02;36.27
67131;HTU21D;54051;53.464;49.532;2023-09-19T06:12:53;27.11;34.63
67131;HTU21D;54051;53.464;49.532;2023-09-19T06:15:20;29.61;29.64
67131;HTU21D;54051;53.464;49.532;2023-09-19T06:17:49;29.09;30.22
67131;HTU21D;54051;53.464;49.532;2023-09-19T06:20:15;28.61;31.48
67131;HTU21D;54051;53.464;49.532;2023-09-19T06:22:42;29.96;28.32
67131;HTU21D;54051;53.464;49.532;2023-09-19T06:25:09;28.13;31.44
67131;HTU21D;54051;53.464;49.532;2023-09-19T06:27:40;26.37;33.90
67131;HTU21D;54051;53.464;49.532;2023-09-19T06:30:10;25.51;36.02
67131;HTU21D;54051;53.464;49.532;2023-09-19T06:32:43;24.83;37.05
67131;HTU21D;54051;53.464;49.532;2023-09-19T06:35:11;24.14;38.24
67131;HTU21D;54051;53.464;49.532;2023-09-19T06:37:38;23.80;38.56
67131;HTU21D;54051;53.464;49.532;2023-09-19T06:42:34;23.62;39.74
67131;HTU21D;54051;53.464;49.532;2023-09-19T06:45:03;27.63;30.29
67131;HTU21D;54051;53.464;49.532;2023-09-19T06:47:29;29.57;25.37
67131;HTU21D;54051;53.464;49.532;2023-09-19T06:49:55;31.58;22.34
67131;HTU21D;54051;53.464;49.532;2023-09-19T06:52:21;31.95;22.26
67131;HTU21D;54051;53.464;49.532;2023-09-19T06:54:48;33.04;19.72
67131;HTU21D;54051;53.464;49.532;2023-09-19T06:57:16;31.87;21.66
67131;HTU21D;54051;53.464;49.532;2023-09-19T06:59:41;33.01;19.23
67131;HTU21D;54051;53.464;49.532;2023-09-19T07:02:07;34.98;17.07
67131;HTU21D;54051;53.464;49.532;2023-09-19T07:04:34;35.56;16.42
67131;HTU21D;54051;53.464;49.532;2023-09-19T07:07:00;31.90;21.31
67131;HTU21D;54051;53.464;49.532;2023-09-19T07:09:25;28.15;26.86
67131;HTU21D;54051;53.464;49.532;2023-09-19T07:11:53;25.81;31.60
67131;HTU21D;54051;53.464;49.532;2023-09-19T07:14:19;24.43;34.06
67131;HTU21D;54051;53.464;49.532;2023-09-19T07:16:45;23.44;36.01
67131;HTU21D;54051;53.464;49.532;2023-09-19T07:19:13;22.96;37.82
67131;HTU21D;54051;53.464;49.532;2023-09-19T07:21:40;23.81;36.28
67131;HTU21D;54051;53.464;49.532;2023-09-19T07:24:06;24.00;36.14
67131;HTU21D;54051;53.464;49.532;2023-09-19T07:26:33;27.21;30.28
67131;HTU21D;54051;53.464;49.532;2023-09-19T07:28:59;30.76;24.02
67131;HTU21D;54051;53.464;49.532;2023-09-19T07:31:28;34.20;18.67
67131;HTU21D;54051;53.464;49.532;2023-09-19T07:33:54;35.20;16.80
67131;HTU21D;54051;53.464;49.532;2023-09-19T07:36:20;31.76;21.82
67131;HTU21D;54051;53.464;49.532;2023-09-19T07:38:45;33.88;17.86
67131;HTU21D;54051;53.464;49.532;2023-09-19T07:41:12;32.28;18.50
67131;HTU21D;54051;53.464;49.532;2023-09-19T07:43:38;29.47;22.16
67131;HTU21D;54051;53.464;49.532;2023-09-19T07:46:06;32.02;18.62
67131;HTU21D;54051;53.464;49.532;2023-09-19T07:48:33;34.10;16.12
67131;HTU21D;54051;53.464;49.532;2023-09-19T07:51:03;36.43;13.13
67131;HTU21D;54051;53.464;49.532;2023-09-19T07:53:29;36.72;12.78
67131;HTU21D;54051;53.464;49.532;2023-09-19T07:56:05;37.16;12.04
67131;HTU21D;54051;53.464;49.532;2023-09-19T07:58:31;36.67;12.74
67131;HTU21D;54051;53.464;49.532;2023-09-19T08:01:02;36.56;12.28
67131;HTU21D;54051;53.464;49.532;2023-09-19T08:03:28;36.46;12.55
67131;HTU21D;54051;53.464;49.532;2023-09-19T08:05:56;32.00;17.21
67131;HTU21D;54051;53.464;49.532;2023-09-19T08:08:23;29.27;21.21
67131;HTU21D;54051;53.464;49.532;2023-09-19T08:10:57;31.46;17.39
67131;HTU21D;54051;53.464;49.532;2023-09-19T08:13:24;34.38;14.07
67131;HTU21D;54051;53.464;49.532;2023-09-19T08:15:50;35.52;13.20
67131;HTU21D;54051;53.464;49.532;2023-09-19T08:18:16;35.65;12.93
67131;HTU21D;54051;53.464;49.532;2023-09-19T08:20:42;35.73;12.61
67131;HTU21D;54051;53.464;49.532;2023-09-19T08:23:08;36.02;12.50
67131;HTU21D;54051;53.464;49.532;2023-09-19T08:25:34;36.27;12.80
67131;HTU21D;54051;53.464;49.532;2023-09-19T08:28:00;31.11;19.12
67131;HTU21D;54051;53.464;49.532;2023-09-19T08:30:27;27.45;25.07
67131;HTU21D;54051;53.464;49.532;2023-09-19T08:33:01;28.35;24.04
67131;HTU21D;54051;53.464;49.532;2023-09-19T08:35:30;31.81;19.28
67131;HTU21D;54051;53.464;49.532;2023-09-19T08:37:55;33.47;16.42
67131;HTU21D;54051;53.464;49.532;2023-09-19T08:40:22;33.73;15.94
67131;HTU21D;54051;53.464;49.532;2023-09-19T08:42:51;34.37;14.87
67131;HTU21D;54051;53.464;49.532;2023-09-19T08:45:19;34.66;14.50
67131;HTU21D;54051;53.464;49.532;2023-09-19T08:47:46;34.49;14.14
67131;HTU21D;54051;53.464;49.532;2023-09-19T08:50:28;31.85;17.57
67131;HTU21D;54051;53.464;49.532;2023-09-19T08:53:00;27.90;23.34
67131;HTU21D;54051;53.464;49.532;2023-09-19T08:55:27;25.87;27.42
67131;HTU21D;54051;53.464;49.532;2023-09-19T08:58:00;25.30;28.87
67131;HTU21D;54051;53.464;49.532;2023-09-19T09:00:27;25.80;28.20
67131;HTU21D;54051;53.464;49.532;2023-09-19T09:02:54;25.23;28.71
67131;HTU21D;54051;53.464;49.532;2023-09-19T09:05:21;25.58;28.32
67131;HTU21D;54051;53.464;49.532;2023-09-19T09:07:51;25.75;27.55
67131;HTU21D;54051;53.464;49.532;2023-09-19T09:10:20;24.72;29.39
67131;HTU21D;54051;53.464;49.532;2023-09-19T09:12:50;23.62;31.09
67131;HTU21D;54051;53.464;49.532;2023-09-19T09:15:18;23.11;32.58
67131;HTU21D;54051;53.464;49.532;2023-09-19T09:17:46;22.56;34.02
67131;HTU21D;54051;53.464;49.532;2023-09-19T09:20:14;22.09;34.75
67131;HTU21D;54051;53.464;49.532;2023-09-19T09:22:50;22.02;35.39
67131;HTU21D;54051;53.464;49.532;2023-09-19T09:25:16;22.69;33.48
67131;HTU21D;54051;53.464;49.532;2023-09-19T09:27:44;22.85;32.93
67131;HTU21D;54051;53.464;49.532;2023-09-19T09:30:10;23.00;32.10
67131;HTU21D;54051;53.464;49.532;2023-09-19T09:33:17;23.15;30.49
67131;HTU21D;54051;53.464;49.532;2023-09-19T09:38:18;23.47;34.29
67131;HTU21D;54051;53.464;49.532;2023-09-19T09:40:50;23.42;34.92
67131;HTU21D;54051;53.464;49.532;2023-09-19T09:46:09;22.98;35.92
67131;HTU21D;54051;53.464;49.532;2023-09-19T09:48:57;22.83;36.40
67131;HTU21D;54051;53.464;49.532;2023-09-19T09:51:42;22.78;35.93
67131;HTU21D;54051;53.464;49.532;2023-09-19T09:54:25;22.38;36.60
67131;HTU21D;54051;53.464;49.532;2023-09-19T09:56:54;22.20;37.43
67131;HTU21D;54051;53.464;49.532;2023-09-19T10:02:54;22.41;36.29
67131;HTU21D;54051;53.464;49.532;2023-09-19T10:05:20;22.51;35.85
67131;HTU21D;54051;53.464;49.532;2023-09-19T10:07:53;22.29;35.76
67131;HTU21D;54051;53.464;49.532;2023-09-19T10:10:38;21.84;36.67
67131;HTU21D;54051;53.464;49.532;2023-09-19T10:13:07;21.58;36.77
67131;HTU21D;54051;53.464;49.532;2023-09-19T10:15:37;21.58;36.69
67131;HTU21D;54051;53.464;49.532;2023-09-19T10:18:04;21.77;37.41
67131;HTU21D;54051;53.464;49.532;2023-09-19T10:20:31;21.97;36.82
67131;HTU21D;54051;53.464;49.532;2023-09-19T10:23:05;21.78;36.46
67131;HTU21D;54051;53.464;49.532;2023-09-19T10:25:36;21.44;36.95
67131;HTU21D;54051;53.464;49.532;2023-09-19T10:28:02;21.45;37.11
67131;HTU21D;54051;53.464;49.532;2023-09-19T10:30:32;21.14;37.72
67131;HTU21D;54051;53.464;49.532;2023-09-19T10:33:00;20.69;37.98
67131;HTU21D;54051;53.464;49.532;2023-09-19T10:35:27;20.81;38.36
67131;HTU21D;54051;53.464;49.532;2023-09-19T10:37:57;21.15;37.74
67131;HTU21D;54051;53.464;49.532;2023-09-19T10:40:26;21.40;37.40
67131;HTU21D;54051;53.464;49.532;2023-09-19T10:43:02;21.64;36.70
67131;HTU21D;54051;53.464;49.532;2023-09-19T10:45:32;21.78;37.20
67131;HTU21D;54051;53.464;49.532;2023-09-19T10:48:02;22.17;36.79
67131;HTU21D;54051;53.464;49.532;2023-09-19T10:51:04;22.47;35.00
67131;HTU21D;54051;53.464;49.532;2023-09-19T10:53:20;22.22;34.81
67131;HTU21D;54051;53.464;49.532;2023-09-19T10:55:48;21.79;35.43
67131;HTU21D;54051;53.464;49.532;2023-09-19T10:58:24;21.74;35.69
67131;HTU21D;54051;53.464;49.532;2023-09-19T11:00:51;21.59;36.02
67131;HTU21D;54051;53.464;49.532;2023-09-19T11:03:19;21.43;35.92
67131;HTU21D;54051;53.464;49.532;2023-09-19T11:08:50;20.76;37.28
67131;HTU21D;54051;53.464;49.532;2023-09-19T11:14:14;20.57;37.44
67131;HTU21D;54051;53.464;49.532;2023-09-19T11:16:41;20.50;37.37
67131;HTU21D;54051;53.464;49.532;2023-09-19T11:20:10;20.46;37.08
67131;HTU21D;54051;53.464;49.532;2023-09-19T11:22:13;20.30;37.12
67131;HTU21D;54051;53.464;49.532;2023-09-19T11:24:39;20.24;37.49
67131;HTU21D;54051;53.464;49.532;2023-09-19T11:27:09;20.26;36.99
67131;HTU21D;54051;53.464;49.532;2023-09-19T11:29:36;20.31;37.07
67131;HTU21D;54051;53.464;49.532;2023-09-19T11:32:03;20.30;36.64
67131;HTU21D;54051;53.464;49.532;2023-09-19T11:34:41;20.13;37.50
67131;HTU21D;54051;53.464;49.532;2023-09-19T11:39:37;19.84;38.72
67131;HTU21D;54051;53.464;49.532;2023-09-19T11:44:53;20.25;38.27
67131;HTU21D;54051;53.464;49.532;2023-09-19T11:47:21;20.49;37.98
67131;HTU21D;54051;53.464;49.532;2023-09-19T11:49:57;20.61;37.50
67131;HTU21D;54051;53.464;49.532;2023-09-19T11:52:24;20.60;36.61
67131;HTU21D;54051;53.464;49.532;2023-09-19T11:54:56;20.54;36.90
67131;HTU21D;54051;53.464;49.532;2023-09-19T11:57:22;20.32;37.23
67131;HTU21D;54051;53.464;49.532;2023-09-19T11:59:49;20.14;37.17
67131;HTU21D;54051;53.464;49.532;2023-09-19T12:02:27;20.05;37.95
67131;HTU21D;54051;53.464;49.532;2023-09-19T12:04:59;20.04;37.76
67131;HTU21D;54051;53.464;49.532;2023-09-19T12:07:25;20.03;37.76
67131;HTU21D;54051;53.464;49.532;2023-09-19T12:10:02;20.02;38.12
67131;HTU21D;54051;53.464;49.532;2023-09-19T12:12:28;20.04;37.68
67131;HTU21D;54051;53.464;49.532;2023-09-19T12:14:56;19.98;37.81
67131;HTU21D;54051;53.464;49.532;2023-09-19T12:17:37;19.95;38.04
67131;HTU21D;54051;53.464;49.532;2023-09-19T12:20:04;19.88;38.01
67131;HTU21D;54051;53.464;49.532;2023-09-19T12:22:41;19.99;37.72
67131;HTU21D;54051;53.464;49.532;2023-09-19T12:25:09;20.10;38.14
67131;HTU21D;54051;53.464;49.532;2023-09-19T12:27:43;20.11;37.86
67131;HTU21D;54051;53.464;49.532;2023-09-19T12:30:09;20.00;38.55
67131;HTU21D;54051;53.464;49.532;2023-09-19T12:32:36;19.90;38.55
67131;HTU21D;54051;53.464;49.532;2023-09-19T12:35:02;19.76;38.94
67131;HTU21D;54051;53.464;49.532;2023-09-19T12:37:32;19.73;38.76
67131;HTU21D;54051;53.464;49.532;2023-09-19T12:40:05;19.71;38.94
67131;HTU21D;54051;53.464;49.532;2023-09-19T12:42:46;19.71;39.13
67131;HTU21D;54051;53.464;49.532;2023-09-19T12:45:13;19.66;39.55
67131;HTU21D;54051;53.464;49.532;2023-09-19T12:47:40;19.62;39.29
67131;HTU21D;54051;53.464;49.532;2023-09-19T12:50:26;19.57;39.27
67131;HTU21D;54051;53.464;49.532;2023-09-19T12:52:55;19.57;39.49
67131;HTU21D;54051;53.464;49.532;2023-09-19T12:55:22;19.42;38.87
67131;HTU21D;54051;53.464;49.532;2023-09-19T13:00:40;19.23;39.51
67131;HTU21D;54051;53.464;49.532;2023-09-19T13:03:11;19.17;39.44
67131;HTU21D;54051;53.464;49.532;2023-09-19T13:05:47;19.15;40.26
67131;HTU21D;54051;53.464;49.532;2023-09-19T13:08:35;19.07;40.81
67131;HTU21D;54051;53.464;49.532;2023-09-19T13:11:08;19.18;39.21
67131;HTU21D;54051;53.464;49.532;2023-09-19T13:13:51;19.21;38.90
67131;HTU21D;54051;53.464;49.532;2023-09-19T13:16:26;19.17;38.88
67131;HTU21D;54051;53.464;49.532;2023-09-19T13:18:54;19.12;38.75
67131;HTU21D;54051;53.464;49.532;2023-09-19T13:23:54;18.95;38.99
67131;HTU21D;54051;53.464;49.532;2023-09-19T13:26:27;18.88;38.75
67131;HTU21D;54051;53.464;49.532;2023-09-19T13:28:57;18.81;39.07
67131;HTU21D;54051;53.464;49.532;2023-09-19T13:31:22;18.83;39.02
67131;HTU21D;54051;53.464;49.532;2023-09-19T13:33:49;18.80;39.50
67131;HTU21D;54051;53.464;49.532;2023-09-19T13:36:15;18.82;39.55
67131;HTU21D;54051;53.464;49.532;2023-09-19T13:38:42;18.71;39.88
67131;HTU21D;54051;53.464;49.532;2023-09-19T13:41:12;18.72;39.88
67131;HTU21D;54051;53.464;49.532;2023-09-19T13:43:39;18.73;39.51
67131;HTU21D;54051;53.464;49.532;2023-09-19T13:46:05;18.66;39.51
67131;HTU21D;54051;53.464;49.532;2023-09-19T13:48:33;18.65;40.34
67131;HTU21D;54051;53.464;49.532;2023-09-19T13:51:03;18.55;41.24
67131;HTU21D;54051;53.464;49.532;2023-09-19T13:53:29;18.47;41.65
67131;HTU21D;54051;53.464;49.532;2023-09-19T13:55:55;18.63;41.78
67131;HTU21D;54051;53.464;49.532;2023-09-19T13:58:21;18.77;41.58
67131;HTU21D;54051;53.464;49.532;2023-09-19T14:00:48;18.87;41.09
67131;HTU21D;54051;53.464;49.532;2023-09-19T14:03:17;18.66;41.51
67131;HTU21D;54051;53.464;49.532;2023-09-19T14:05:42;18.35;42.03
67131;HTU21D;54051;53.464;49.532;2023-09-19T14:08:08;18.22;42.93
67131;HTU21D;54051;53.464;49.532;2023-09-19T14:10:34;18.04;43.25
67131;HTU21D;54051;53.464;49.532;2023-09-19T14:13:00;17.89;43.53
67131;HTU21D;54051;53.464;49.532;2023-09-19T14:15:26;17.81;43.76
67131;HTU21D;54051;53.464;49.532;2023-09-19T14:17:56;17.76;44.26
67131;HTU21D;54051;53.464;49.532;2023-09-19T14:20:22;17.65;44.73
67131;HTU21D;54051;53.464;49.532;2023-09-19T14:22:48;17.54;45.09
67131;HTU21D;54051;53.464;49.532;2023-09-19T14:25:14;17.45;45.66
67131;HTU21D;54051;53.464;49.532;2023-09-19T14:27:40;17.38;45.90
67131;HTU21D;54051;53.464;49.532;2023-09-19T14:30:07;17.31;46.09
67131;HTU21D;54051;53.464;49.532;2023-09-19T14:32:33;17.22;46.44
67131;HTU21D;54051;53.464;49.532;2023-09-19T14:34:59;17.17;46.64
67131;HTU21D;54051;53.464;49.532;2023-09-19T14:37:25;17.13;46.94
67131;HTU21D;54051;53.464;49.532;2023-09-19T14:39:53;17.06;47.31
67131;HTU21D;54051;53.464;49.532;2023-09-19T14:42:19;17.00;47.73
67131;HTU21D;54051;53.464;49.532;2023-09-19T14:44:45;16.95;47.90
67131;HTU21D;54051;53.464;49.532;2023-09-19T14:47:13;16.88;48.28
67131;HTU21D;54051;53.464;49.532;2023-09-19T14:49:39;16.84;48.65
67131;HTU21D;54051;53.464;49.532;2023-09-19T14:52:08;16.76;48.89
67131;HTU21D;54051;53.464;49.532;2023-09-19T14:54:35;16.72;48.98
67131;HTU21D;54051;53.464;49.532;2023-09-19T14:57:03;16.67;49.37
67131;HTU21D;54051;53.464;49.532;2023-09-19T14:59:34;16.61;49.72
67131;HTU21D;54051;53.464;49.532;2023-09-19T15:02:03;16.58;49.96
67131;HTU21D;54051;53.464;49.532;2023-09-19T15:04:29;16.51;50.42
67131;HTU21D;54051;53.464;49.532;2023-09-19T15:06:55;16.44;50.36
67131;HTU21D;54051;53.464;49.532;2023-09-19T15:09:21;16.39;50.52
67131;HTU21D;54051;53.464;49.532;2023-09-19T15:11:49;16.40;50.53
67131;HTU21D;54051;53.464;49.532;2023-09-19T15:14:17;16.39;50.80
67131;HTU21D;54051;53.464;49.532;2023-09-19T15:16:43;16.33;50.80
67131;HTU21D;54051;53.464;49.532;2023-09-19T15:19:09;16.27;51.22
67131;HTU21D;54051;53.464;49.532;2023-09-19T15:21:35;16.20;51.21
67131;HTU21D;54051;53.464;49.532;2023-09-19T15:24:03;16.18;51.72
67131;HTU21D;54051;53.464;49.532;2023-09-19T15:26:29;16.13;51.75
67131;HTU21D;54051;53.464;49.532;2023-09-19T15:28:55;16.10;51.97
67131;HTU21D;54051;53.464;49.532;2023-09-19T15:31:22;16.04;52.15
67131;HTU21D;54051;53.464;49.532;2023-09-19T15:33:47;16.02;52.49
67131;HTU21D;54051;53.464;49.532;2023-09-19T15:36:14;15.95;52.85
67131;HTU21D;54051;53.464;49.532;2023-09-19T15:38:59;15.87;53.30
67131;HTU21D;54051;53.464;49.532;2023-09-19T15:41:26;15.81;53.28
67131;HTU21D;54051;53.464;49.532;2023-09-19T15:43:54;15.75;52.98
67131;HTU21D;54051;53.464;49.532;2023-09-19T15:46:20;15.71;53.10
67131;HTU21D;54051;53.464;49.532;2023-09-19T15:48:47;15.69;53.16